createdAt,value
2018-07-26T00:00:18.821Z,0
2018-07-26T00:01:28.907Z,0
2018-07-26T00:02:39.032Z,0
2018-07-26T00:03:49.101Z,0
2018-07-26T00:04:58.907Z,0
2018-07-26T00:06:08.707Z,0
2018-07-26T00:07:18.780Z,0
2018-07-26T00:08:28.901Z,0
2018-07-26T00:09:38.699Z,0
2018-07-26T00:10:48.523Z,0
2018-07-26T00:11:58.318Z,0
2018-07-26T00:13:08.403Z,0
2018-07-26T00:14:18.267Z,0
2018-07-26T00:15:28.055Z,0
2018-07-26T00:16:37.890Z,0
2018-07-26T00:17:47.978Z,0
2018-07-26T00:18:57.771Z,0
2018-07-26T00:20:07.352Z,0
2018-07-26T00:21:17.443Z,0
2018-07-26T00:22:27.513Z,0
2018-07-26T00:23:37.039Z,0
2018-07-26T00:24:46.584Z,0
2018-07-26T00:25:56.706Z,0
2018-07-26T00:27:06.767Z,0
2018-07-26T00:28:16.555Z,0
2018-07-26T00:29:26.625Z,0
2018-07-26T00:30:36.415Z,0
2018-07-26T00:31:46.263Z,0
2018-07-26T00:32:56.325Z,0
2018-07-26T00:34:06.129Z,0
2018-07-26T00:35:16.197Z,0
2018-07-26T00:36:25.986Z,0
2018-07-26T00:37:35.834Z,0
2018-07-26T00:38:45.928Z,0
2018-07-26T00:39:55.732Z,0
2018-07-26T00:41:05.269Z,0
2018-07-26T00:42:15.067Z,0
2018-07-26T00:43:25.195Z,0
2018-07-26T00:44:35.000Z,0
2018-07-26T00:45:45.093Z,0
2018-07-26T00:46:54.904Z,0
2018-07-26T00:48:04.981Z,0
2018-07-26T00:49:15.101Z,0
2018-07-26T00:50:24.895Z,0
2018-07-26T00:51:34.975Z,0
2018-07-26T00:52:44.785Z,0
2018-07-26T00:53:54.611Z,0
2018-07-26T00:55:04.724Z,0
2018-07-26T00:56:14.779Z,0
2018-07-26T00:57:24.578Z,0
2018-07-26T00:58:34.380Z,0
2018-07-26T00:59:44.178Z,0
2018-07-26T01:00:54.291Z,0
2018-07-26T01:02:04.078Z,0
2018-07-26T01:03:14.143Z,0
2018-07-26T01:04:23.956Z,0
2018-07-26T01:05:34.025Z,0
2018-07-26T01:06:43.858Z,0
2018-07-26T01:07:53.656Z,0
2018-07-26T01:09:03.467Z,0
2018-07-26T01:10:13.536Z,0
2018-07-26T01:11:23.335Z,0
2018-07-26T01:12:33.182Z,0
2018-07-26T01:13:43.247Z,0
2018-07-26T01:14:52.785Z,0
2018-07-26T01:16:02.313Z,0
2018-07-26T01:17:12.114Z,0
2018-07-26T01:18:21.965Z,0
2018-07-26T01:19:31.231Z,0
2018-07-26T01:20:41.045Z,0
2018-07-26T01:21:51.123Z,0
2018-07-26T01:23:00.920Z,0
2018-07-26T01:24:11.037Z,0
2018-07-26T01:25:20.842Z,0
2018-07-26T01:26:30.911Z,0
2018-07-26T01:27:40.729Z,0
2018-07-26T01:28:50.523Z,0
2018-07-26T01:30:00.629Z,0
2018-07-26T01:31:10.439Z,0
2018-07-26T01:32:20.245Z,0
2018-07-26T01:33:30.049Z,4
2018-07-26T01:34:39.850Z,4
2018-07-26T01:35:49.957Z,4
2018-07-26T01:36:59.763Z,4
2018-07-26T01:38:09.296Z,4
2018-07-26T01:39:19.390Z,0
2018-07-26T01:40:29.473Z,0
2018-07-26T01:41:39.316Z,4
2018-07-26T01:42:49.124Z,4
2018-07-26T01:43:59.204Z,4
2018-07-26T01:45:08.465Z,4
2018-07-26T01:46:18.554Z,4
2018-07-26T01:47:28.661Z,4
2018-07-26T01:48:38.730Z,4
2018-07-26T01:49:48.253Z,4
2018-07-26T01:50:58.337Z,8
2018-07-26T01:52:08.144Z,8
2018-07-26T01:53:17.992Z,8
2018-07-26T01:54:27.773Z,8
2018-07-26T01:55:37.847Z,12
2018-07-26T01:56:47.907Z,8
2018-07-26T01:57:57.988Z,12
2018-07-26T01:59:08.104Z,12
2018-07-26T02:00:17.901Z,16
2018-07-26T02:01:27.712Z,12
2018-07-26T02:02:37.769Z,12
2018-07-26T02:03:47.843Z,20
2018-07-26T02:04:57.419Z,20
2018-07-26T02:06:07.233Z,20
2018-07-26T02:07:17.037Z,20
2018-07-26T02:08:27.099Z,24
2018-07-26T02:09:36.637Z,28
2018-07-26T02:10:46.889Z,32
2018-07-26T02:11:56.968Z,32
2018-07-26T02:13:06.771Z,36
2018-07-26T02:14:16.849Z,40
2018-07-26T02:15:26.912Z,44
2018-07-26T02:16:37.037Z,48
2018-07-26T02:17:47.086Z,48
2018-07-26T02:18:56.881Z,60
2018-07-26T02:20:06.677Z,60
2018-07-26T02:21:16.481Z,68
2018-07-26T02:22:26.594Z,76
2018-07-26T02:23:36.399Z,80
2018-07-26T02:24:46.218Z,84
2018-07-26T02:25:55.481Z,92
2018-07-26T02:27:05.551Z,100
2018-07-26T02:28:15.659Z,112
2018-07-26T02:29:25.454Z,124
2018-07-26T02:30:35.240Z,136
2018-07-26T02:31:45.040Z,148
2018-07-26T02:32:55.116Z,156
2018-07-26T02:34:04.967Z,168
2018-07-26T02:35:15.052Z,184
2018-07-26T02:36:24.576Z,192
2018-07-26T02:37:34.660Z,204
2018-07-26T02:38:44.451Z,220
2018-07-26T02:39:54.562Z,232
2018-07-26T02:41:04.657Z,244
2018-07-26T02:42:14.469Z,256
2018-07-26T02:43:24.291Z,276
2018-07-26T02:44:34.097Z,296
2018-07-26T02:45:44.235Z,312
2018-07-26T02:46:54.026Z,332
2018-07-26T02:48:03.834Z,356
2018-07-26T02:49:13.902Z,376
2018-07-26T02:50:23.707Z,396
2018-07-26T02:51:33.891Z,420
2018-07-26T02:52:43.689Z,444
2018-07-26T02:53:53.758Z,468
2018-07-26T02:55:03.858Z,488
2018-07-26T02:56:13.668Z,516
2018-07-26T02:57:23.801Z,532
2018-07-26T02:58:33.884Z,560
2018-07-26T02:59:43.693Z,576
2018-07-26T03:03:43.079Z,632
2018-07-26T03:04:52.895Z,656
2018-07-26T03:06:02.981Z,672
2018-07-26T03:07:13.318Z,696
2018-07-26T03:08:23.329Z,716
2018-07-26T03:09:32.911Z,744
2018-07-26T03:10:42.733Z,768
2018-07-26T03:11:52.270Z,796
2018-07-26T03:13:02.411Z,828
2018-07-26T03:14:12.503Z,856
2018-07-26T03:15:22.085Z,892
2018-07-26T03:16:31.626Z,928
2018-07-26T03:17:41.694Z,960
2018-07-26T03:18:51.811Z,992
2018-07-26T03:20:01.882Z,1024
2018-07-26T03:21:11.614Z,1060
2018-07-26T03:22:21.742Z,1104
2018-07-26T03:23:31.280Z,1148
2018-07-26T03:24:40.803Z,1180
2018-07-26T03:25:50.876Z,1184
2018-07-26T03:27:01.001Z,1196
2018-07-26T03:28:10.793Z,1220
2018-07-26T03:29:20.862Z,1248
2018-07-26T03:30:30.677Z,1268
2018-07-26T03:31:40.733Z,1292
2018-07-26T03:32:50.319Z,1316
2018-07-26T03:34:00.398Z,1348
2018-07-26T03:35:10.199Z,1388
2018-07-26T03:36:20.272Z,1424
2018-07-26T03:37:30.056Z,1464
2018-07-26T03:38:39.627Z,1500
2018-07-26T03:39:49.160Z,1532
2018-07-26T03:40:58.958Z,1560
2018-07-26T03:42:09.042Z,1592
2018-07-26T03:43:18.846Z,1624
2018-07-26T03:44:28.415Z,1652
2018-07-26T03:45:38.212Z,1684
2018-07-26T03:46:48.283Z,1696
2018-07-26T03:47:58.096Z,1708
2018-07-26T03:49:07.609Z,1720
2018-07-26T03:50:17.730Z,1744
2018-07-26T03:51:27.953Z,1772
2018-07-26T03:52:38.301Z,1824
2018-07-26T03:53:48.463Z,1864
2018-07-26T03:54:58.554Z,1876
2018-07-26T03:56:08.401Z,1904
2018-07-26T03:57:18.192Z,1888
2018-07-26T03:58:28.263Z,1864
2018-07-26T03:59:38.070Z,1864
2018-07-26T04:00:47.594Z,1876
2018-07-26T04:01:57.439Z,1908
2018-07-26T04:03:07.516Z,1960
2018-07-26T04:04:17.302Z,2008
2018-07-26T04:05:27.580Z,2052
2018-07-26T04:06:37.350Z,2164
2018-07-26T04:07:47.472Z,2260
2018-07-26T04:08:57.259Z,2260
2018-07-26T04:10:07.066Z,2320
2018-07-26T04:11:16.880Z,2376
2018-07-26T04:12:26.955Z,2400
2018-07-26T04:13:36.801Z,2364
2018-07-26T04:14:46.856Z,2452
2018-07-26T04:15:56.394Z,2460
2018-07-26T04:17:06.455Z,2496
2018-07-26T04:18:15.982Z,2492
2018-07-26T04:19:26.098Z,2552
2018-07-26T04:20:35.896Z,2584
2018-07-26T04:21:45.960Z,2656
2018-07-26T04:22:55.756Z,2648
2018-07-26T04:24:05.566Z,2616
2018-07-26T04:25:15.681Z,2620
2018-07-26T04:26:25.765Z,2636
2018-07-26T04:27:35.843Z,2688
2018-07-26T04:28:45.397Z,2692
2018-07-26T04:29:55.207Z,2784
2018-07-26T04:31:05.045Z,2740
2018-07-26T04:32:14.866Z,2672
2018-07-26T04:33:25.123Z,2656
2018-07-26T04:34:34.647Z,2692
2018-07-26T04:35:44.169Z,2688
2018-07-26T04:36:54.015Z,2696
2018-07-26T04:38:04.074Z,2796
2018-07-26T04:39:13.610Z,2780
2018-07-26T04:40:23.411Z,2896
2018-07-26T04:41:33.478Z,2936
2018-07-26T04:42:43.045Z,3020
2018-07-26T04:43:52.853Z,3168
2018-07-26T04:45:02.651Z,3248
2018-07-26T04:46:12.437Z,3400
2018-07-26T04:47:22.220Z,3476
2018-07-26T04:48:31.802Z,3508
2018-07-26T04:49:41.329Z,3496
2018-07-26T04:50:51.125Z,3556
2018-07-26T04:52:00.948Z,3644
2018-07-26T04:53:10.462Z,3608
2018-07-26T04:54:20.306Z,3556
2018-07-26T04:55:29.842Z,3508
2018-07-26T04:56:39.921Z,3396
2018-07-26T04:57:49.993Z,3400
2018-07-26T04:59:00.071Z,3340
2018-07-26T05:00:09.917Z,3432
2018-07-26T05:01:19.714Z,3428
2018-07-26T05:02:29.788Z,3500
2018-07-26T05:03:39.581Z,3512
2018-07-26T05:04:49.105Z,3544
2018-07-26T05:05:58.956Z,3544
2018-07-26T05:07:09.026Z,3524
2018-07-26T05:08:18.936Z,3528
2018-07-26T05:09:28.746Z,3500
2018-07-26T05:10:38.827Z,3532
2018-07-26T05:11:48.970Z,3592
2018-07-26T05:12:58.512Z,3604
2018-07-26T05:14:08.305Z,3624
2018-07-26T05:15:18.100Z,3628
2018-07-26T05:16:27.885Z,3644
2018-07-26T05:17:38.021Z,3616
2018-07-26T05:18:47.550Z,3600
2018-07-26T05:19:57.609Z,3588
2018-07-26T05:21:07.151Z,3568
2018-07-26T05:22:17.215Z,3544
2018-07-26T05:23:27.342Z,3516
2018-07-26T05:24:37.435Z,3500
2018-07-26T05:25:47.511Z,3412
2018-07-26T05:26:57.311Z,3388
2018-07-26T05:28:06.843Z,3404
2018-07-26T05:29:16.968Z,3380
2018-07-26T05:30:27.032Z,3356
2018-07-26T05:31:36.839Z,3340
2018-07-26T05:32:46.642Z,3312
2018-07-26T05:33:56.435Z,3284
2018-07-26T05:35:06.013Z,3288
2018-07-26T05:36:15.808Z,3284
2018-07-26T05:37:25.884Z,3276
2018-07-26T05:38:35.433Z,3256
2018-07-26T05:39:44.965Z,3272
2018-07-26T05:40:54.809Z,3280
2018-07-26T05:42:04.606Z,3288
2018-07-26T05:43:14.869Z,3312
2018-07-26T05:44:24.750Z,3308
2018-07-26T05:45:34.555Z,3312
2018-07-26T05:46:44.405Z,3288
2018-07-26T05:47:54.477Z,3280
2018-07-26T05:49:04.276Z,3252
2018-07-26T05:50:14.339Z,3244
2018-07-26T05:51:24.154Z,3200
2018-07-26T05:52:34.303Z,3156
2018-07-26T05:53:44.383Z,3136
2018-07-26T05:54:54.188Z,3120
2018-07-26T05:56:03.450Z,3084
2018-07-26T05:57:13.500Z,3032
2018-07-26T05:58:23.625Z,3012
2018-07-26T05:59:33.418Z,2976
2018-07-26T06:00:43.224Z,2956
2018-07-26T06:01:53.307Z,2956
2018-07-26T06:03:03.096Z,2944
2018-07-26T06:04:12.678Z,2976
2018-07-26T06:05:22.489Z,2956
2018-07-26T06:06:32.271Z,2992
2018-07-26T06:07:42.341Z,2968
2018-07-26T06:08:52.149Z,2984
2018-07-26T06:10:02.265Z,2976
2018-07-26T06:11:11.794Z,2996
2018-07-26T06:12:21.854Z,2984
2018-07-26T06:13:31.651Z,3024
2018-07-26T06:14:41.728Z,3036
2018-07-26T06:15:51.848Z,3120
2018-07-26T06:17:01.973Z,3152
2018-07-26T06:18:11.867Z,3196
2018-07-26T06:19:22.007Z,3228
2018-07-26T06:20:31.875Z,3284
2018-07-26T06:21:41.791Z,3292
2018-07-26T06:22:51.586Z,3356
2018-07-26T06:24:01.404Z,3360
2018-07-26T06:25:11.484Z,3364
2018-07-26T06:26:21.584Z,3376
2018-07-26T06:27:31.435Z,3372
2018-07-26T06:28:40.968Z,3384
2018-07-26T06:29:51.018Z,3388
2018-07-26T06:31:01.076Z,3392
2018-07-26T06:32:10.332Z,3400
2018-07-26T06:33:20.560Z,3404
2018-07-26T06:34:30.717Z,3408
2018-07-26T06:35:40.514Z,3416
2018-07-26T06:36:55.327Z,3416
2018-07-26T06:38:05.298Z,3424
2018-07-26T06:39:15.060Z,3424
2018-07-26T06:40:25.125Z,3428
2018-07-26T06:41:35.220Z,3432
2018-07-26T06:42:45.295Z,3444
2018-07-26T06:43:55.376Z,3440
2018-07-26T06:45:05.217Z,3460
2018-07-26T06:46:15.016Z,3464
2018-07-26T06:47:24.810Z,3480
2018-07-26T06:48:34.616Z,3492
2018-07-26T06:49:44.414Z,3492
2018-07-26T06:50:54.523Z,3500
2018-07-26T06:52:04.036Z,3508
2018-07-26T06:53:13.374Z,3516
2018-07-26T06:54:23.178Z,3532
2018-07-26T06:55:32.999Z,3556
2018-07-26T06:56:42.568Z,3548
2018-07-26T06:57:52.358Z,3560
2018-07-26T06:59:02.146Z,3564
2018-07-26T07:00:10.869Z,3564
2018-07-26T07:01:20.110Z,3584
2018-07-26T07:02:30.241Z,3596
2018-07-26T07:03:40.321Z,3608
2018-07-26T07:04:50.122Z,3624
2018-07-26T07:06:00.191Z,3636
2018-07-26T07:07:10.272Z,3664
2018-07-26T07:08:20.117Z,3672
2018-07-26T07:09:30.178Z,3688
2018-07-26T07:10:40.245Z,3700
2018-07-26T07:11:50.040Z,3712
2018-07-26T07:12:59.830Z,3732
2018-07-26T07:14:09.423Z,3756
2018-07-26T07:15:19.522Z,3784
2018-07-26T07:16:29.332Z,3812
2018-07-26T07:17:39.405Z,3832
2018-07-26T07:18:49.503Z,3856
2018-07-26T07:19:59.625Z,3888
2018-07-26T07:21:09.171Z,3912
2018-07-26T07:22:19.244Z,3952
2018-07-26T07:23:29.058Z,3988
2018-07-26T07:24:39.142Z,4012
2018-07-26T07:25:49.004Z,3960
2018-07-26T07:26:58.812Z,3888
2018-07-26T07:28:08.074Z,3828
2018-07-26T07:29:18.138Z,3796
2018-07-26T07:30:27.667Z,3784
2018-07-26T07:31:37.523Z,3796
2018-07-26T07:32:47.580Z,3804
2018-07-26T07:33:57.660Z,3816
2018-07-26T07:35:07.734Z,3824
2018-07-26T07:36:17.796Z,3832
2018-07-26T07:37:27.934Z,3844
2018-07-26T07:38:38.023Z,3856
2018-07-26T07:39:48.116Z,3876
2018-07-26T07:40:58.180Z,3896
2018-07-26T07:42:08.032Z,3912
2018-07-26T07:43:18.182Z,3932
2018-07-26T07:44:27.981Z,3952
2018-07-26T07:45:37.778Z,3964
2018-07-26T07:46:48.060Z,3968
2018-07-26T07:47:58.123Z,3980
2018-07-26T07:49:07.955Z,3988
2018-07-26T07:50:18.071Z,3996
2018-07-26T07:51:27.863Z,4000
2018-07-26T07:52:37.923Z,4016
2018-07-26T07:53:48.001Z,4016
2018-07-26T07:54:57.850Z,4020
2018-07-26T07:56:07.922Z,4044
2018-07-26T07:57:18.004Z,4052
2018-07-26T07:58:28.074Z,4052
2018-07-26T07:59:38.506Z,4052
2018-07-26T08:00:48.727Z,4060
2018-07-26T08:01:58.540Z,4060
2018-07-26T08:03:08.357Z,4076
2018-07-26T08:04:18.151Z,4072
2018-07-26T08:05:28.453Z,4072
2018-07-26T08:06:37.767Z,4080
2018-07-26T08:07:47.875Z,4084
2018-07-26T08:08:57.957Z,4096
2018-07-26T08:10:07.485Z,4108
2018-07-26T08:11:17.500Z,4120
2018-07-26T08:12:27.728Z,4136
2018-07-26T08:13:37.612Z,4152
2018-07-26T08:14:47.701Z,4172
2018-07-26T08:15:57.776Z,4200
2018-07-26T08:17:07.572Z,4216
2018-07-26T08:18:17.698Z,4236
2018-07-26T08:19:27.228Z,4264
2018-07-26T08:20:37.031Z,4300
2018-07-26T08:21:47.100Z,4336
2018-07-26T08:22:56.645Z,4368
2018-07-26T08:24:06.580Z,4396
2018-07-26T08:25:16.655Z,4420
2018-07-26T08:26:25.911Z,4436
2018-07-26T08:27:35.711Z,4444
2018-07-26T08:28:45.510Z,4440
2018-07-26T08:29:55.645Z,4420
2018-07-26T08:31:05.720Z,4420
2018-07-26T08:32:15.781Z,4420
2018-07-26T08:33:25.591Z,4424
2018-07-26T08:34:35.683Z,4432
2018-07-26T08:35:45.806Z,4420
2018-07-26T08:36:55.612Z,4416
2018-07-26T08:38:05.704Z,4460
2018-07-26T08:39:15.517Z,4452
2018-07-26T08:40:25.326Z,4420
2018-07-26T08:41:35.200Z,4392
2018-07-26T08:42:45.295Z,4400
2018-07-26T08:43:55.375Z,4504
2018-07-26T08:45:05.186Z,4508
2018-07-26T08:46:15.261Z,4572
2018-07-26T08:47:25.121Z,4628
2018-07-26T08:48:35.207Z,4664
2018-07-26T08:49:45.026Z,4672
2018-07-26T08:50:54.810Z,4680
2018-07-26T08:52:04.676Z,4684
2018-07-26T08:53:14.594Z,4704
2018-07-26T08:54:25.008Z,4704
2018-07-26T08:55:34.527Z,4716
2018-07-26T08:56:44.342Z,4732
2018-07-26T08:57:54.422Z,4748
2018-07-26T08:59:04.272Z,4760
2018-07-26T09:00:14.067Z,4764
2018-07-26T09:01:23.856Z,4764
2018-07-26T09:02:33.958Z,4844
2018-07-26T09:03:43.501Z,4876
2018-07-26T09:04:53.106Z,4908
2018-07-26T09:06:02.915Z,4932
2018-07-26T09:07:12.729Z,4948
2018-07-26T09:08:22.790Z,4972
2018-07-26T09:09:32.868Z,5000
2018-07-26T09:10:42.482Z,5032
2018-07-26T09:11:52.292Z,5064
2018-07-26T09:13:01.838Z,5096
2018-07-26T09:14:11.103Z,5124
2018-07-26T09:15:21.173Z,5140
2018-07-26T09:16:31.085Z,5152
2018-07-26T09:17:40.895Z,5184
2018-07-26T09:18:50.972Z,5220
2018-07-26T09:20:01.056Z,5236
2018-07-26T09:21:11.155Z,5208
2018-07-26T09:22:21.274Z,5284
2018-07-26T09:23:31.085Z,5332
2018-07-26T09:24:40.680Z,5376
2018-07-26T09:25:50.778Z,5444
2018-07-26T09:27:00.579Z,5496
2018-07-26T09:28:10.182Z,5520
2018-07-26T09:29:19.996Z,5524
2018-07-26T09:30:30.070Z,5504
2018-07-26T09:31:39.872Z,5484
2018-07-26T09:32:49.948Z,5516
2018-07-26T09:33:59.881Z,5544
2018-07-26T09:35:09.692Z,5560
2018-07-26T09:36:19.771Z,5548
2018-07-26T09:37:29.589Z,5568
2018-07-26T09:38:39.386Z,5580
2018-07-26T09:39:49.507Z,5588
2018-07-26T09:40:59.363Z,5616
2018-07-26T09:42:09.491Z,5640
2018-07-26T09:43:19.312Z,5668
2018-07-26T09:44:28.849Z,5716
2018-07-26T09:45:38.438Z,5784
2018-07-26T09:46:47.973Z,5808
2018-07-26T09:47:57.782Z,5792
2018-07-26T09:49:07.322Z,5800
2018-07-26T09:50:17.391Z,5812
2018-07-26T09:51:27.511Z,5836
2018-07-26T09:52:36.514Z,5904
2018-07-26T09:53:46.317Z,5984
2018-07-26T09:54:56.192Z,6020
2018-07-26T09:56:06.092Z,5980
2018-07-26T09:57:15.941Z,5948
2018-07-26T09:58:25.751Z,5952
2018-07-26T09:59:35.568Z,5972
2018-07-26T10:00:45.380Z,5968
2018-07-26T10:01:54.917Z,5948
2018-07-26T10:03:05.036Z,5940
2018-07-26T10:04:15.098Z,5948
2018-07-26T10:05:24.920Z,5960
2018-07-26T10:06:35.004Z,5988
2018-07-26T10:07:45.060Z,6028
2018-07-26T10:08:54.926Z,6084
2018-07-26T10:10:05.014Z,6100
2018-07-26T10:11:15.099Z,6120
2018-07-26T10:12:25.183Z,6140
2018-07-26T10:13:34.721Z,6140
2018-07-26T10:14:44.894Z,6160
2018-07-26T10:15:55.061Z,6184
2018-07-26T10:17:05.254Z,6200
2018-07-26T10:18:15.045Z,6216
2018-07-26T10:19:25.119Z,6240
2018-07-26T10:20:35.238Z,6248
2018-07-26T10:21:45.322Z,6256
2018-07-26T10:22:55.396Z,6260
2018-07-26T10:24:05.195Z,6272
2018-07-26T10:25:15.281Z,6296
2018-07-26T10:26:25.415Z,6332
2018-07-26T10:27:35.220Z,6360
2018-07-26T10:28:44.763Z,6396
2018-07-26T10:29:54.298Z,6416
2018-07-26T10:31:04.103Z,6452
2018-07-26T10:32:13.956Z,6492
2018-07-26T10:33:24.032Z,6516
2018-07-26T10:34:34.097Z,6552
2018-07-26T10:35:44.174Z,6568
2018-07-26T10:36:53.700Z,6576
2018-07-26T10:38:03.541Z,6584
2018-07-26T10:39:13.065Z,6608
2018-07-26T10:40:23.142Z,6628
2018-07-26T10:41:33.212Z,6648
2018-07-26T10:42:43.023Z,6680
2018-07-26T10:43:53.148Z,6728
2018-07-26T10:45:02.669Z,6760
2018-07-26T10:46:12.487Z,6808
2018-07-26T10:47:22.565Z,6856
2018-07-26T10:48:32.654Z,6884
2018-07-26T10:49:42.780Z,6912
2018-07-26T10:50:52.839Z,6912
2018-07-26T10:52:02.652Z,6912
2018-07-26T10:53:12.441Z,6952
2018-07-26T10:54:22.515Z,6964
2018-07-26T10:55:32.369Z,6976
2018-07-26T10:56:42.455Z,7012
2018-07-26T10:57:52.524Z,7068
2018-07-26T10:59:01.807Z,7116
2018-07-26T11:00:11.092Z,7148
2018-07-26T11:01:21.313Z,7192
2018-07-26T11:02:31.107Z,7252
2018-07-26T11:03:40.999Z,7304
2018-07-26T11:04:51.204Z,7364
2018-07-26T11:06:01.283Z,7408
2018-07-26T11:07:10.596Z,7428
2018-07-26T11:08:20.115Z,7456
2018-07-26T11:09:29.669Z,7500
2018-07-26T11:10:39.199Z,7512
2018-07-26T11:11:49.007Z,7656
2018-07-26T11:12:58.863Z,7748
2018-07-26T11:14:08.664Z,7840
2018-07-26T11:15:18.597Z,7888
2018-07-26T11:16:28.925Z,7764
2018-07-26T11:17:39.073Z,7636
2018-07-26T11:18:48.934Z,7660
2018-07-26T11:19:59.097Z,7732
2018-07-26T11:21:08.918Z,7788
2018-07-26T11:22:18.173Z,7896
2018-07-26T11:23:28.274Z,7952
2018-07-26T11:24:38.136Z,8028
2018-07-26T11:25:48.662Z,8064
2018-07-26T11:26:58.213Z,8100
2018-07-26T11:28:08.324Z,8132
2018-07-26T11:29:18.420Z,8132
2018-07-26T11:30:28.263Z,8184
2018-07-26T11:31:38.334Z,8236
2018-07-26T11:32:48.164Z,8260
2018-07-26T11:33:57.980Z,8328
2018-07-26T11:35:07.779Z,8428
2018-07-26T11:36:17.663Z,8968
2018-07-26T11:37:27.474Z,10184
2018-07-26T11:38:37.022Z,24544
2018-07-26T11:39:46.817Z,67008
2018-07-26T11:40:56.897Z,85152
2018-07-26T11:42:07.054Z,86464
2018-07-26T11:43:17.139Z,86944
2018-07-26T11:44:27.201Z,88288
2018-07-26T11:45:37.285Z,86464
2018-07-26T11:46:47.356Z,84640
2018-07-26T11:47:56.942Z,83712
2018-07-26T11:49:06.764Z,84160
2018-07-26T11:50:17.154Z,82016
2018-07-26T11:51:26.955Z,84992
2018-07-26T11:52:36.773Z,86464
2018-07-26T11:53:46.942Z,83712
2018-07-26T11:54:56.759Z,83264
2018-07-26T11:56:06.570Z,78624
2018-07-26T11:57:16.385Z,80448
2018-07-26T11:58:26.510Z,84384
2018-07-26T11:59:36.095Z,79904
2018-07-26T12:00:46.183Z,80480
2018-07-26T12:01:55.981Z,81440
2018-07-26T12:03:05.782Z,78016
2018-07-26T12:04:15.602Z,76192
2018-07-26T12:05:25.219Z,78176
2018-07-26T12:06:34.739Z,73760
2018-07-26T12:07:44.816Z,76224
2018-07-26T12:08:54.918Z,78816
2018-07-26T12:10:04.743Z,78016
2018-07-26T12:11:14.657Z,72704
2018-07-26T12:12:24.477Z,79456
2018-07-26T12:13:34.586Z,83584
2018-07-26T12:14:44.730Z,85312
2018-07-26T12:15:54.547Z,85152
2018-07-26T12:17:04.688Z,81568
2018-07-26T12:18:14.793Z,76864
2018-07-26T12:19:24.872Z,73344
2018-07-26T12:20:34.977Z,77184
2018-07-26T12:21:45.106Z,81184
2018-07-26T12:22:54.970Z,79968
2018-07-26T12:24:04.794Z,81792
2018-07-26T12:25:14.871Z,81792
2018-07-26T12:26:24.701Z,78464
2018-07-26T12:27:34.797Z,78656
2018-07-26T12:28:44.940Z,81568
2018-07-26T12:29:55.015Z,78624
2018-07-26T12:31:04.832Z,77472
2018-07-26T12:32:14.653Z,81024
2018-07-26T12:33:24.738Z,78528
2018-07-26T12:34:34.597Z,76000
2018-07-26T12:35:44.445Z,78880
2018-07-26T12:36:54.383Z,81760
2018-07-26T12:38:04.231Z,82528
2018-07-26T12:39:14.065Z,79456
2018-07-26T12:40:23.924Z,71488
2018-07-26T12:41:34.288Z,76224
2018-07-26T12:42:44.124Z,78944
2018-07-26T12:43:53.956Z,80352
2018-07-26T12:45:03.520Z,79616
2018-07-26T12:46:13.114Z,79008
2018-07-26T12:47:23.306Z,84512
2018-07-26T12:48:33.460Z,84320
2018-07-26T12:49:43.284Z,79328
2018-07-26T12:50:53.414Z,76896
2018-07-26T12:52:03.247Z,78528
2018-07-26T12:53:13.591Z,81504
2018-07-26T12:54:23.681Z,80800
2018-07-26T12:55:33.805Z,78688
2018-07-26T12:56:43.918Z,78080
2018-07-26T12:57:54.053Z,75264
2018-07-26T12:59:03.892Z,74144
2018-07-26T13:00:13.467Z,76608
2018-07-26T13:01:23.619Z,81824
2018-07-26T13:02:33.772Z,80640
2018-07-26T13:03:43.647Z,78240
2018-07-26T13:04:53.745Z,77632
2018-07-26T13:06:03.568Z,78112
2018-07-26T13:07:13.892Z,81216
2018-07-26T13:08:24.007Z,80608
2018-07-26T13:09:33.886Z,69824
2018-07-26T13:10:44.015Z,66464
2018-07-26T13:11:53.828Z,72096
2018-07-26T13:13:03.643Z,79744
2018-07-26T13:14:13.201Z,81280
2018-07-26T13:15:23.352Z,85152
2018-07-26T13:16:33.451Z,87456
2018-07-26T13:17:43.288Z,88032
2018-07-26T13:18:53.362Z,87840
2018-07-26T13:20:03.472Z,90112
2018-07-26T13:21:13.612Z,87904
2018-07-26T13:22:23.169Z,88032
2018-07-26T13:23:33.260Z,88832
2018-07-26T13:24:42.822Z,86176
2018-07-26T13:25:52.361Z,80544
2018-07-26T13:27:01.967Z,85376
2018-07-26T13:28:11.787Z,86720
2018-07-26T13:29:21.603Z,82016
2018-07-26T13:30:31.701Z,81952
2018-07-26T13:31:41.769Z,84608
2018-07-26T13:32:51.909Z,86272
2018-07-26T13:34:02.006Z,89728
2018-07-26T13:35:11.286Z,90624
2018-07-26T13:36:21.092Z,93440
2018-07-26T13:37:30.916Z,88160
2018-07-26T13:38:40.804Z,86848
2018-07-26T13:39:50.963Z,86016
2018-07-26T13:41:00.867Z,89696
2018-07-26T13:42:10.957Z,95456
2018-07-26T13:43:20.795Z,88416
2018-07-26T13:44:30.687Z,82496
2018-07-26T13:45:40.532Z,85024
2018-07-26T13:46:50.611Z,88416
2018-07-26T13:48:00.718Z,80608
2018-07-26T13:49:10.537Z,79776
2018-07-26T13:50:20.730Z,80640
2018-07-26T13:51:30.822Z,84960
2018-07-26T13:52:40.799Z,86336
2018-07-26T13:53:51.063Z,81280
2018-07-26T13:55:01.162Z,85056
2018-07-26T13:56:11.046Z,85344
2018-07-26T13:57:20.625Z,84640
2018-07-26T13:58:30.247Z,82016
2018-07-26T13:59:40.085Z,75424
2018-07-26T14:00:50.196Z,73984
2018-07-26T14:02:00.342Z,78208
2018-07-26T14:03:09.625Z,76224
2018-07-26T14:04:19.443Z,76704
2018-07-26T14:05:29.263Z,79552
2018-07-26T14:06:39.106Z,76960
2018-07-26T14:07:49.267Z,78240
2018-07-26T14:08:59.102Z,79904
2018-07-26T14:10:08.941Z,73600
2018-07-26T14:11:19.040Z,70624
2018-07-26T14:12:28.867Z,74400
2018-07-26T14:13:39.009Z,73344
2018-07-26T14:14:49.096Z,73280
2018-07-26T14:15:59.539Z,74080
2018-07-26T14:17:09.929Z,72288
2018-07-26T14:18:20.029Z,74752
2018-07-26T14:19:30.178Z,74496
2018-07-26T14:20:40.039Z,75936
2018-07-26T14:21:49.665Z,72352
2018-07-26T14:22:59.229Z,73568
2018-07-26T14:24:09.063Z,74496
2018-07-26T14:25:18.941Z,76224
2018-07-26T14:26:29.043Z,78048
2018-07-26T14:27:38.954Z,80032
2018-07-26T14:28:48.578Z,79552
2018-07-26T14:29:58.422Z,76192
2018-07-26T14:31:08.305Z,77120
2018-07-26T14:32:17.874Z,77600
2018-07-26T14:33:27.971Z,74720
2018-07-26T14:34:37.797Z,73504
2018-07-26T14:35:47.347Z,72544
2018-07-26T14:36:56.949Z,67616
2018-07-26T14:38:06.809Z,62720
2018-07-26T14:39:16.944Z,62464
2018-07-26T14:40:27.043Z,63840
2018-07-26T14:41:37.151Z,66848
2018-07-26T14:42:47.034Z,72416
2018-07-26T14:43:56.876Z,70048
2018-07-26T14:45:07.237Z,63296
2018-07-26T14:46:16.803Z,55168
2018-07-26T14:47:26.344Z,54144
2018-07-26T14:48:35.676Z,56800
2018-07-26T14:49:45.748Z,57568
2018-07-26T14:50:55.548Z,53504
2018-07-26T14:52:05.539Z,50720
2018-07-26T14:53:15.610Z,51936
2018-07-26T14:54:25.835Z,54752
2018-07-26T14:55:36.022Z,60000
2018-07-26T14:56:45.861Z,66976
2018-07-26T14:57:55.683Z,69536
2018-07-26T14:59:05.512Z,69888
2018-07-26T15:00:15.393Z,70528
2018-07-26T15:01:25.245Z,75360
2018-07-26T15:02:35.068Z,79296
2018-07-26T15:03:45.160Z,78272
2018-07-26T15:04:54.444Z,78368
2018-07-26T15:06:04.597Z,73536
2018-07-26T15:07:14.748Z,74592
2018-07-26T15:08:24.568Z,77440
2018-07-26T15:09:34.406Z,78624
2018-07-26T15:10:43.685Z,79424
2018-07-26T15:11:53.869Z,80960
2018-07-26T15:13:03.696Z,81376
2018-07-26T15:14:14.067Z,81440
2018-07-26T15:15:23.965Z,84480
2018-07-26T15:16:34.073Z,85568
2018-07-26T15:17:43.938Z,79712
2018-07-26T15:18:53.767Z,73920
2018-07-26T15:20:03.583Z,75040
2018-07-26T15:21:12.858Z,81728
2018-07-26T15:22:22.679Z,81216
2018-07-26T15:23:32.814Z,80192
2018-07-26T15:24:42.936Z,79392
2018-07-26T15:25:53.009Z,79360
2018-07-26T15:27:02.831Z,76288
2018-07-26T15:28:12.663Z,78496
2018-07-26T15:29:22.815Z,78400
2018-07-26T15:30:32.927Z,76480
2018-07-26T15:31:42.733Z,75680
2018-07-26T15:32:52.795Z,77312
2018-07-26T15:34:02.975Z,80000
2018-07-26T15:35:12.856Z,81024
2018-07-26T15:36:22.675Z,78080
2018-07-26T15:37:32.492Z,73952
2018-07-26T15:38:42.587Z,70784
2018-07-26T15:39:52.408Z,71200